sensor_id;sensor_type;location;lat;lon;timestamp;pressure;altitude;pressure_sealevel;temperature;humidity
38452;BME280;24231;52.514;13.438;2023-04-15T00:02:14;100089.90;;;11.06;72.86
38452;BME280;24231;52.514;13.438;2023-04-15T00:04:41;100085.84;;;10.74;73.88
38452;BME280;24231;52.514;13.438;2023-04-15T00:07:09;100084.04;;;10.67;73.55
38452;BME280;24231;52.514;13.438;2023-04-15T00:09:36;100081.38;;;10.60;75.56
38452;BME280;24231;52.514;13.438;2023-04-15T00:12:04;100083.04;;;10.68;74.79
38452;BME280;24231;52.514;13.438;2023-04-15T00:14:32;100085.51;;;10.37;74.71
38452;BME280;24231;52.514;13.438;2023-04-15T00:16:59;100084.41;;;10.53;74.16
38452;BME280;24231;52.514;13.438;2023-04-15T00:19:26;100082.09;;;10.82;73.81
38452;BME280;24231;52.514;13.438;2023-04-15T00:21:53;100078.15;;;10.75;74.37
38452;BME280;24231;52.514;13.438;2023-04-15T00:24:20;100079.18;;;10.20;75.56
38452;BME280;24231;52.514;13.438;2023-04-15T00:26:47;100080.84;;;9.41;78.49
38452;BME280;24231;52.514;13.438;2023-04-15T00:29:14;100080.08;;;10.09;75.90
38452;BME280;24231;52.514;13.438;2023-04-15T00:31:41;100081.20;;;10.12;77.75
38452;BME280;24231;52.514;13.438;2023-04-15T00:34:09;100076.17;;;10.88;73.83
38452;BME280;24231;52.514;13.438;2023-04-15T00:36:36;100081.14;;;10.86;72.82
38452;BME280;24231;52.514;13.438;2023-04-15T00:39:04;100079.17;;;11.04;72.64
38452;BME280;24231;52.514;13.438;2023-04-15T00:41:31;100079.73;;;10.19;75.08
38452;BME280;24231;52.514;13.438;2023-04-15T00:43:58;100079.13;;;11.16;72.37
38452;BME280;24231;52.514;13.438;2023-04-15T00:46:26;100079.49;;;11.17;71.16
38452;BME280;24231;52.514;13.438;2023-04-15T00:48:55;100078.24;;;11.01;71.72
38452;BME280;24231;52.514;13.438;2023-04-15T00:51:22;100073.11;;;10.99;71.88
38452;BME280;24231;52.514;13.438;2023-04-15T00:53:49;100071.94;;;11.36;70.94
38452;BME280;24231;52.514;13.438;2023-04-15T00:56:17;100072.03;;;11.05;71.78
38452;BME280;24231;52.514;13.438;2023-04-15T00:58:45;100071.98;;;11.57;69.51
38452;BME280;24231;52.514;13.438;2023-04-15T01:01:12;100068.10;;;10.79;71.66
38452;BME280;24231;52.514;13.438;2023-04-15T01:03:39;100068.68;;;10.83;72.33
38452;BME280;24231;52.514;13.438;2023-04-15T01:06:07;100069.14;;;11.12;71.64
38452;BME280;24231;52.514;13.438;2023-04-15T01:08:34;100067.56;;;11.18;70.02
38452;BME280;24231;52.514;13.438;2023-04-15T01:11:01;100064.10;;;10.30;74.44
38452;BME280;24231;52.514;13.438;2023-04-15T01:13:29;100061.35;;;11.38;70.60
38452;BME280;24231;52.514;13.438;2023-04-15T01:15:57;100062.52;;;11.85;67.87
38452;BME280;24231;52.514;13.438;2023-04-15T01:18:25;100060.60;;;11.88;68.15
38452;BME280;24231;52.514;13.438;2023-04-15T01:20:52;100059.12;;;10.62;71.41
38452;BME280;24231;52.514;13.438;2023-04-15T01:23:20;100058.63;;;11.55;68.82
38452;BME280;24231;52.514;13.438;2023-04-15T01:25:48;100056.17;;;11.32;69.93
38452;BME280;24231;52.514;13.438;2023-04-15T01:28:15;100058.24;;;10.96;70.43
38452;BME280;24231;52.514;13.438;2023-04-15T01:30:42;100057.41;;;11.20;70.64
38452;BME280;24231;52.514;13.438;2023-04-15T01:33:10;100057.27;;;10.99;69.86
38452;BME280;24231;52.514;13.438;2023-04-15T01:35:37;100057.15;;;11.83;68.84
38452;BME280;24231;52.514;13.438;2023-04-15T01:38:06;100053.80;;;12.15;66.73
38452;BME280;24231;52.514;13.438;2023-04-15T01:40:34;100053.62;;;12.13;66.91
38452;BME280;24231;52.514;13.438;2023-04-15T01:43:02;100051.80;;;10.64;72.86
38452;BME280;24231;52.514;13.438;2023-04-15T01:45:29;100052.24;;;10.46;74.06
38452;BME280;24231;52.514;13.438;2023-04-15T01:47:56;100051.65;;;10.34;74.23
38452;BME280;24231;52.514;13.438;2023-04-15T01:50:23;100051.93;;;11.19;70.88
38452;BME280;24231;52.514;13.438;2023-04-15T01:52:50;100051.01;;;10.86;72.29
38452;BME280;24231;52.514;13.438;2023-04-15T01:55:17;100051.20;;;11.10;72.05
38452;BME280;24231;52.514;13.438;2023-04-15T01:57:45;100047.27;;;10.25;73.13
38452;BME280;24231;52.514;13.438;2023-04-15T02:00:12;100047.21;;;9.86;73.98
38452;BME280;24231;52.514;13.438;2023-04-15T02:02:40;100047.10;;;10.62;73.49
38452;BME280;24231;52.514;13.438;2023-04-15T02:05:08;100044.31;;;10.84;72.68
38452;BME280;24231;52.514;13.438;2023-04-15T02:07:35;100049.74;;;11.20;70.75
38452;BME280;24231;52.514;13.438;2023-04-15T02:10:03;100051.35;;;11.18;69.71
38452;BME280;24231;52.514;13.438;2023-04-15T02:12:30;100045.49;;;11.72;68.17
38452;BME280;24231;52.514;13.438;2023-04-15T02:14:57;100051.95;;;11.21;69.32
38452;BME280;24231;52.514;13.438;2023-04-15T02:17:24;100043.76;;;11.69;68.84
38452;BME280;24231;52.514;13.438;2023-04-15T02:19:52;100048.04;;;11.21;70.46
38452;BME280;24231;52.514;13.438;2023-04-15T02:22:18;100047.56;;;11.42;69.49
38452;BME280;24231;52.514;13.438;2023-04-15T02:24:46;100045.30;;;11.88;67.10
38452;BME280;24231;52.514;13.438;2023-04-15T02:27:15;100043.64;;;11.14;70.71
38452;BME280;24231;52.514;13.438;2023-04-15T02:29:42;100044.53;;;10.97;72.00
38452;BME280;24231;52.514;13.438;2023-04-15T02:32:10;100043.15;;;11.23;70.54
38452;BME280;24231;52.514;13.438;2023-04-15T02:34:37;100042.24;;;9.88;75.65
38452;BME280;24231;52.514;13.438;2023-04-15T02:37:04;100044.64;;;10.27;74.91
38452;BME280;24231;52.514;13.438;2023-04-15T02:39:32;100042.38;;;11.43;70.32
38452;BME280;24231;52.514;13.438;2023-04-15T02:41:59;100046.02;;;11.78;68.39
38452;BME280;24231;52.514;13.438;2023-04-15T02:44:26;100044.03;;;11.17;71.07
38452;BME280;24231;52.514;13.438;2023-04-15T02:46:53;100045.56;;;11.86;67.70
38452;BME280;24231;52.514;13.438;2023-04-15T02:49:20;100048.75;;;10.88;71.06
38452;BME280;24231;52.514;13.438;2023-04-15T02:51:47;100050.77;;;10.39;72.01
38452;BME280;24231;52.514;13.438;2023-04-15T02:54:15;100053.08;;;10.52;72.15
38452;BME280;24231;52.514;13.438;2023-04-15T02:56:41;100050.97;;;11.55;69.55
38452;BME280;24231;52.514;13.438;2023-04-15T02:59:09;100054.61;;;11.05;69.39
38452;BME280;24231;52.514;13.438;2023-04-15T03:01:36;100055.34;;;11.32;70.19
38452;BME280;24231;52.514;13.438;2023-04-15T03:04:03;100059.18;;;11.72;67.75
38452;BME280;24231;52.514;13.438;2023-04-15T03:06:31;100055.85;;;11.31;69.75
38452;BME280;24231;52.514;13.438;2023-04-15T03:08:58;100056.49;;;11.47;68.59
38452;BME280;24231;52.514;13.438;2023-04-15T03:11:25;100057.85;;;11.07;71.12
38452;BME280;24231;52.514;13.438;2023-04-15T03:13:52;100059.44;;;11.73;68.11
38452;BME280;24231;52.514;13.438;2023-04-15T03:16:20;100055.57;;;11.19;70.27
38452;BME280;24231;52.514;13.438;2023-04-15T03:18:47;100059.23;;;10.51;71.34
38452;BME280;24231;52.514;13.438;2023-04-15T03:21:14;100058.10;;;10.46;74.22
38452;BME280;24231;52.514;13.438;2023-04-15T03:23:41;100059.26;;;11.93;68.36
38452;BME280;24231;52.514;13.438;2023-04-15T03:26:08;100061.94;;;11.16;69.40
38452;BME280;24231;52.514;13.438;2023-04-15T03:28:35;100060.76;;;12.27;67.24
38452;BME280;24231;52.514;13.438;2023-04-15T03:31:03;100062.41;;;11.71;66.96
38452;BME280;24231;52.514;13.438;2023-04-15T03:33:30;100062.18;;;12.34;65.73
38452;BME280;24231;52.514;13.438;2023-04-15T03:35:58;100064.39;;;11.84;67.66
38452;BME280;24231;52.514;13.438;2023-04-15T03:38:25;100061.13;;;12.09;66.39
38452;BME280;24231;52.514;13.438;2023-04-15T03:40:52;100055.41;;;12.46;65.72
38452;BME280;24231;52.514;13.438;2023-04-15T03:43:19;100055.78;;;12.54;65.14
38452;BME280;24231;52.514;13.438;2023-04-15T03:45:46;100051.19;;;12.67;65.01
38452;BME280;24231;52.514;13.438;2023-04-15T03:48:14;100059.35;;;11.60;68.38
38452;BME280;24231;52.514;13.438;2023-04-15T03:50:41;100052.51;;;12.31;66.12
38452;BME280;24231;52.514;13.438;2023-04-15T03:53:07;100059.03;;;11.21;70.00
38452;BME280;24231;52.514;13.438;2023-04-15T03:55:35;100059.75;;;11.47;69.13
38452;BME280;24231;52.514;13.438;2023-04-15T03:58:02;100059.09;;;10.54;72.46
38452;BME280;24231;52.514;13.438;2023-04-15T04:00:29;100063.87;;;11.91;67.86
38452;BME280;24231;52.514;13.438;2023-04-15T04:02:55;100063.58;;;11.24;69.74
38452;BME280;24231;52.514;13.438;2023-04-15T04:05:22;100064.98;;;11.46;69.90
38452;BME280;24231;52.514;13.438;2023-04-15T04:07:50;100070.63;;;11.39;68.62
38452;BME280;24231;52.514;13.438;2023-04-15T04:10:18;100066.30;;;12.96;63.72
38452;BME280;24231;52.514;13.438;2023-04-15T04:12:45;100069.02;;;9.98;75.68
38452;BME280;24231;52.514;13.438;2023-04-15T04:15:12;100070.80;;;12.00;68.32
38452;BME280;24231;52.514;13.438;2023-04-15T04:17:39;100062.88;;;12.35;66.50
38452;BME280;24231;52.514;13.438;2023-04-15T04:20:07;100065.07;;;12.63;65.39
38452;BME280;24231;52.514;13.438;2023-04-15T04:22:37;100065.46;;;12.42;65.98
38452;BME280;24231;52.514;13.438;2023-04-15T04:25:04;100063.42;;;12.81;64.73
38452;BME280;24231;52.514;13.438;2023-04-15T04:27:32;100071.73;;;12.42;66.27
38452;BME280;24231;52.514;13.438;2023-04-15T04:29:59;100073.70;;;12.52;64.89
38452;BME280;24231;52.514;13.438;2023-04-15T04:32:27;100070.55;;;12.77;64.05
38452;BME280;24231;52.514;13.438;2023-04-15T04:34:54;100070.30;;;12.36;65.77
38452;BME280;24231;52.514;13.438;2023-04-15T04:37:21;100070.00;;;12.75;64.23
38452;BME280;24231;52.514;13.438;2023-04-15T04:39:49;100075.69;;;12.10;66.01
38452;BME280;24231;52.514;13.438;2023-04-15T04:42:16;100075.88;;;12.23;65.83
38452;BME280;24231;52.514;13.438;2023-04-15T04:44:43;100071.52;;;12.56;64.92
38452;BME280;24231;52.514;13.438;2023-04-15T04:47:10;100073.66;;;12.42;65.42
38452;BME280;24231;52.514;13.438;2023-04-15T04:49:37;100075.11;;;12.52;65.43
38452;BME280;24231;52.514;13.438;2023-04-15T04:52:05;100078.42;;;12.46;65.02
38452;BME280;24231;52.514;13.438;2023-04-15T04:54:32;100082.70;;;12.58;65.20
38452;BME280;24231;52.514;13.438;2023-04-15T04:57:00;100089.81;;;11.65;69.11
38452;BME280;24231;52.514;13.438;2023-04-15T04:59:27;100086.22;;;11.67;69.35
38452;BME280;24231;52.514;13.438;2023-04-15T05:01:54;100089.56;;;11.23;70.93
38452;BME280;24231;52.514;13.438;2023-04-15T05:04:21;100090.86;;;11.91;68.96
38452;BME280;24231;52.514;13.438;2023-04-15T05:06:48;100096.04;;;11.52;71.06
38452;BME280;24231;52.514;13.438;2023-04-15T05:09:16;100101.76;;;11.76;69.38
38452;BME280;24231;52.514;13.438;2023-04-15T05:11:43;100099.56;;;11.96;68.06
38452;BME280;24231;52.514;13.438;2023-04-15T05:14:10;100101.66;;;11.15;71.39
38452;BME280;24231;52.514;13.438;2023-04-15T05:16:37;100104.91;;;11.81;69.01
38452;BME280;24231;52.514;13.438;2023-04-15T05:19:05;100107.00;;;11.74;69.44
38452;BME280;24231;52.514;13.438;2023-04-15T05:21:32;100103.49;;;10.56;74.10
38452;BME280;24231;52.514;13.438;2023-04-15T05:24:00;100103.12;;;10.44;74.95
38452;BME280;24231;52.514;13.438;2023-04-15T05:26:27;100106.36;;;11.46;70.91
38452;BME280;24231;52.514;13.438;2023-04-15T05:28:54;100105.19;;;10.88;73.41
38452;BME280;24231;52.514;13.438;2023-04-15T05:31:22;100109.06;;;11.35;71.92
38452;BME280;24231;52.514;13.438;2023-04-15T05:33:49;100113.40;;;10.04;78.44
38452;BME280;24231;52.514;13.438;2023-04-15T05:36:17;100113.59;;;10.18;77.54
38452;BME280;24231;52.514;13.438;2023-04-15T05:38:44;100115.59;;;10.39;75.47
38452;BME280;24231;52.514;13.438;2023-04-15T05:41:11;100119.60;;;10.14;76.75
38452;BME280;24231;52.514;13.438;2023-04-15T05:43:38;100121.02;;;9.98;77.16
38452;BME280;24231;52.514;13.438;2023-04-15T05:46:05;100118.20;;;10.54;74.96
38452;BME280;24231;52.514;13.438;2023-04-15T05:48:32;100114.56;;;11.85;70.27
38452;BME280;24231;52.514;13.438;2023-04-15T05:51:00;100115.48;;;10.69;73.96
38452;BME280;24231;52.514;13.438;2023-04-15T05:53:27;100110.57;;;11.39;71.67
38452;BME280;24231;52.514;13.438;2023-04-15T05:55:54;100111.66;;;12.09;69.00
38452;BME280;24231;52.514;13.438;2023-04-15T05:58:22;100112.19;;;11.83;70.07
38452;BME280;24231;52.514;13.438;2023-04-15T06:00:49;100111.98;;;11.61;70.50
38452;BME280;24231;52.514;13.438;2023-04-15T06:03:16;100114.90;;;11.34;71.54
38452;BME280;24231;52.514;13.438;2023-04-15T06:05:43;100112.38;;;11.01;73.52
38452;BME280;24231;52.514;13.438;2023-04-15T06:08:10;100111.49;;;11.23;72.43
38452;BME280;24231;52.514;13.438;2023-04-15T06:10:37;100115.00;;;10.10;76.06
38452;BME280;24231;52.514;13.438;2023-04-15T06:13:04;100114.46;;;11.66;71.20
38452;BME280;24231;52.514;13.438;2023-04-15T06:15:31;100112.84;;;11.24;71.99
38452;BME280;24231;52.514;13.438;2023-04-15T06:17:59;100114.75;;;11.26;71.77
38452;BME280;24231;52.514;13.438;2023-04-15T06:20:26;100113.57;;;11.29;71.86
38452;BME280;24231;52.514;13.438;2023-04-15T06:22:53;100111.97;;;10.97;73.26
38452;BME280;24231;52.514;13.438;2023-04-15T06:25:20;100115.62;;;11.32;72.30
38452;BME280;24231;52.514;13.438;2023-04-15T06:27:47;100117.96;;;9.90;78.08
38452;BME280;24231;52.514;13.438;2023-04-15T06:30:14;100114.72;;;11.18;73.44
38452;BME280;24231;52.514;13.438;2023-04-15T06:32:41;100115.47;;;11.05;73.22
38452;BME280;24231;52.514;13.438;2023-04-15T06:35:09;100122.66;;;10.65;75.13
38452;BME280;24231;52.514;13.438;2023-04-15T06:37:36;100124.68;;;9.88;77.00
38452;BME280;24231;52.514;13.438;2023-04-15T06:40:04;100121.12;;;11.30;72.32
38452;BME280;24231;52.514;13.438;2023-04-15T06:42:32;100126.40;;;10.96;74.52
38452;BME280;24231;52.514;13.438;2023-04-15T06:44:59;100132.11;;;9.87;77.03
38452;BME280;24231;52.514;13.438;2023-04-15T06:47:26;100138.53;;;10.14;76.64
38452;BME280;24231;52.514;13.438;2023-04-15T06:49:53;100139.32;;;11.21;72.50
38452;BME280;24231;52.514;13.438;2023-04-15T06:52:20;100140.04;;;9.52;79.82
38452;BME280;24231;52.514;13.438;2023-04-15T06:54:47;100146.13;;;10.30;76.86
38452;BME280;24231;52.514;13.438;2023-04-15T06:57:14;100144.03;;;10.09;77.09
38452;BME280;24231;52.514;13.438;2023-04-15T06:59:41;100151.12;;;9.82;77.71
38452;BME280;24231;52.514;13.438;2023-04-15T07:02:11;100151.61;;;9.51;81.57
38452;BME280;24231;52.514;13.438;2023-04-15T07:04:38;100155.36;;;10.61;75.90
38452;BME280;24231;52.514;13.438;2023-04-15T07:07:06;100156.11;;;11.06;73.61
38452;BME280;24231;52.514;13.438;2023-04-15T07:09:33;100170.60;;;9.51;79.85
38452;BME280;24231;52.514;13.438;2023-04-15T07:12:01;100166.94;;;9.64;79.04
38452;BME280;24231;52.514;13.438;2023-04-15T07:14:28;100170.89;;;8.92;82.80
38452;BME280;24231;52.514;13.438;2023-04-15T07:16:55;100177.44;;;8.68;85.45
38452;BME280;24231;52.514;13.438;2023-04-15T07:19:22;100177.24;;;8.81;85.43
38452;BME280;24231;52.514;13.438;2023-04-15T07:21:50;100175.42;;;9.78;79.64
38452;BME280;24231;52.514;13.438;2023-04-15T07:24:17;100176.99;;;9.21;82.44
38452;BME280;24231;52.514;13.438;2023-04-15T07:26:44;100182.15;;;9.27;81.67
38452;BME280;24231;52.514;13.438;2023-04-15T07:29:11;100199.88;;;8.57;86.21
38452;BME280;24231;52.514;13.438;2023-04-15T07:31:39;100185.98;;;9.32;82.77
38452;BME280;24231;52.514;13.438;2023-04-15T07:34:07;100189.43;;;9.01;84.10
38452;BME280;24231;52.514;13.438;2023-04-15T07:36:34;100190.73;;;8.47;87.38
38452;BME280;24231;52.514;13.438;2023-04-15T07:39:01;100190.13;;;8.57;87.14
38452;BME280;24231;52.514;13.438;2023-04-15T07:41:28;100196.84;;;8.45;87.87
38452;BME280;24231;52.514;13.438;2023-04-15T07:43:55;100198.53;;;8.45;87.91
38452;BME280;24231;52.514;13.438;2023-04-15T07:46:22;100198.62;;;8.11;90.44
38452;BME280;24231;52.514;13.438;2023-04-15T07:48:50;100195.88;;;8.55;87.50
38452;BME280;24231;52.514;13.438;2023-04-15T07:51:17;100190.13;;;9.13;84.57
38452;BME280;24231;52.514;13.438;2023-04-15T07:53:44;100197.41;;;8.96;84.20
38452;BME280;24231;52.514;13.438;2023-04-15T07:56:12;100195.92;;;8.76;86.50
38452;BME280;24231;52.514;13.438;2023-04-15T07:58:39;100199.63;;;8.20;89.67
38452;BME280;24231;52.514;13.438;2023-04-15T08:01:06;100199.05;;;8.88;84.74
38452;BME280;24231;52.514;13.438;2023-04-15T08:03:33;100200.95;;;8.68;86.01
38452;BME280;24231;52.514;13.438;2023-04-15T08:06:00;100204.78;;;8.51;86.87
38452;BME280;24231;52.514;13.438;2023-04-15T08:08:27;100200.00;;;8.83;85.03
38452;BME280;24231;52.514;13.438;2023-04-15T08:10:55;100199.95;;;8.89;85.90
38452;BME280;24231;52.514;13.438;2023-04-15T08:13:24;100206.92;;;8.71;85.25
38452;BME280;24231;52.514;13.438;2023-04-15T08:16:11;100212.78;;;8.53;86.01
38452;BME280;24231;52.514;13.438;2023-04-15T08:18:39;100215.85;;;8.58;86.77
38452;BME280;24231;52.514;13.438;2023-04-15T08:21:06;100214.18;;;9.04;84.77
38452;BME280;24231;52.514;13.438;2023-04-15T08:23:34;100215.32;;;9.43;82.79
38452;BME280;24231;52.514;13.438;2023-04-15T08:26:01;100219.72;;;8.54;87.86
38452;BME280;24231;52.514;13.438;2023-04-15T08:28:28;100228.67;;;8.61;86.30
38452;BME280;24231;52.514;13.438;2023-04-15T08:30:56;100226.98;;;8.69;85.25
38452;BME280;24231;52.514;13.438;2023-04-15T08:33:23;100221.58;;;8.87;84.76
38452;BME280;24231;52.514;13.438;2023-04-15T08:35:50;100229.00;;;9.21;83.41
38452;BME280;24231;52.514;13.438;2023-04-15T08:38:18;100225.94;;;8.21;88.91
38452;BME280;24231;52.514;13.438;2023-04-15T08:40:45;100228.43;;;9.31;83.25
38452;BME280;24231;52.514;13.438;2023-04-15T08:43:17;100228.59;;;9.25;83.75
38452;BME280;24231;52.514;13.438;2023-04-15T08:45:47;100226.60;;;9.35;83.76
38452;BME280;24231;52.514;13.438;2023-04-15T08:48:17;100224.68;;;9.63;81.53
38452;BME280;24231;52.514;13.438;2023-04-15T08:50:45;100235.52;;;8.67;86.58
38452;BME280;24231;52.514;13.438;2023-04-15T08:53:13;100237.55;;;8.81;88.22
38452;BME280;24231;52.514;13.438;2023-04-15T08:55:45;100238.15;;;8.81;86.98
38452;BME280;24231;52.514;13.438;2023-04-15T08:58:13;100234.29;;;9.30;85.45
38452;BME280;24231;52.514;13.438;2023-04-15T09:00:41;100234.01;;;9.24;85.44
38452;BME280;24231;52.514;13.438;2023-04-15T09:03:08;100237.22;;;8.93;86.26
38452;BME280;24231;52.514;13.438;2023-04-15T09:05:36;100234.64;;;8.46;89.76
38452;BME280;24231;52.514;13.438;2023-04-15T09:08:04;100234.15;;;9.66;83.31
38452;BME280;24231;52.514;13.438;2023-04-15T09:10:32;100233.21;;;10.31;80.10
38452;BME280;24231;52.514;13.438;2023-04-15T09:13:00;100234.89;;;10.14;79.70
38452;BME280;24231;52.514;13.438;2023-04-15T09:15:27;100241.99;;;9.54;82.60
38452;BME280;24231;52.514;13.438;2023-04-15T09:17:56;100243.01;;;9.13;84.12
38452;BME280;24231;52.514;13.438;2023-04-15T09:20:23;100239.71;;;9.39;84.70
38452;BME280;24231;52.514;13.438;2023-04-15T09:22:51;100241.14;;;9.46;82.80
38452;BME280;24231;52.514;13.438;2023-04-15T09:25:28;100244.91;;;10.19;81.18
38452;BME280;24231;52.514;13.438;2023-04-15T09:27:58;100255.53;;;9.47;83.33
38452;BME280;24231;52.514;13.438;2023-04-15T09:30:26;100248.75;;;10.21;79.66
38452;BME280;24231;52.514;13.438;2023-04-15T09:32:56;100256.64;;;9.39;83.75
38452;BME280;24231;52.514;13.438;2023-04-15T09:35:25;100255.09;;;9.91;82.49
38452;BME280;24231;52.514;13.438;2023-04-15T09:37:53;100260.41;;;9.35;83.74
38452;BME280;24231;52.514;13.438;2023-04-15T09:40:31;100263.56;;;10.56;78.31
38452;BME280;24231;52.514;13.438;2023-04-15T09:42:59;100273.17;;;9.16;85.28
38452;BME280;24231;52.514;13.438;2023-04-15T09:45:27;100266.20;;;9.62;84.26
38452;BME280;24231;52.514;13.438;2023-04-15T09:47:56;100272.53;;;9.70;82.99
38452;BME280;24231;52.514;13.438;2023-04-15T09:50:27;100280.08;;;8.70;88.24
38452;BME280;24231;52.514;13.438;2023-04-15T09:52:54;100272.55;;;8.47;92.05
38452;BME280;24231;52.514;13.438;2023-04-15T09:55:22;100276.62;;;8.79;90.48
38452;BME280;24231;52.514;13.438;2023-04-15T09:57:49;100277.38;;;8.80;90.66
38452;BME280;24231;52.514;13.438;2023-04-15T10:00:16;100283.93;;;9.13;89.24
38452;BME280;24231;52.514;13.438;2023-04-15T10:02:44;100285.03;;;9.18;87.33
38452;BME280;24231;52.514;13.438;2023-04-15T10:05:14;100285.97;;;8.99;88.98
38452;BME280;24231;52.514;13.438;2023-04-15T10:07:42;100277.82;;;10.14;83.33
38452;BME280;24231;52.514;13.438;2023-04-15T10:10:10;100292.49;;;8.79;90.04
38452;BME280;24231;52.514;13.438;2023-04-15T10:12:40;100288.95;;;8.83;91.17
38452;BME280;24231;52.514;13.438;2023-04-15T10:15:14;100290.64;;;9.31;86.74
38452;BME280;24231;52.514;13.438;2023-04-15T10:17:43;100289.43;;;9.75;84.05
38452;BME280;24231;52.514;13.438;2023-04-15T10:20:12;100292.33;;;9.49;85.33
38452;BME280;24231;52.514;13.438;2023-04-15T10:22:41;100292.88;;;9.95;85.34
38452;BME280;24231;52.514;13.438;2023-04-15T10:25:10;100297.35;;;9.12;89.74
38452;BME280;24231;52.514;13.438;2023-04-15T10:27:39;100296.60;;;9.46;87.00
38452;BME280;24231;52.514;13.438;2023-04-15T10:30:07;100304.82;;;9.56;86.19
38452;BME280;24231;52.514;13.438;2023-04-15T10:32:34;100295.77;;;9.64;88.08
38452;BME280;24231;52.514;13.438;2023-04-15T10:35:02;100288.20;;;10.50;83.94
38452;BME280;24231;52.514;13.438;2023-04-15T10:37:34;100290.11;;;10.23;83.35
38452;BME280;24231;52.514;13.438;2023-04-15T10:40:23;100294.75;;;10.88;79.28
38452;BME280;24231;52.514;13.438;2023-04-15T10:42:50;100300.17;;;9.42;89.51
38452;BME280;24231;52.514;13.438;2023-04-15T10:45:18;100303.47;;;9.41;90.30
38452;BME280;24231;52.514;13.438;2023-04-15T10:47:44;100296.10;;;9.95;86.44
38452;BME280;24231;52.514;13.438;2023-04-15T10:50:13;100302.11;;;9.55;87.93
38452;BME280;24231;52.514;13.438;2023-04-15T10:52:40;100298.18;;;10.32;84.41
38452;BME280;24231;52.514;13.438;2023-04-15T10:55:13;100303.92;;;9.87;86.90
38452;BME280;24231;52.514;13.438;2023-04-15T10:57:43;100300.45;;;10.22;84.27
38452;BME280;24231;52.514;13.438;2023-04-15T11:00:12;100308.84;;;10.48;82.55
38452;BME280;24231;52.514;13.438;2023-04-15T11:03:06;100310.04;;;11.22;81.23
38452;BME280;24231;52.514;13.438;2023-04-15T11:05:51;100311.73;;;9.84;85.85
38452;BME280;24231;52.514;13.438;2023-04-15T11:08:19;100312.44;;;10.42;83.42
38452;BME280;24231;52.514;13.438;2023-04-15T11:10:51;100318.62;;;11.32;80.45
38452;BME280;24231;52.514;13.438;2023-04-15T11:13:25;100319.20;;;10.20;82.97
38452;BME280;24231;52.514;13.438;2023-04-15T11:15:56;100319.80;;;10.36;83.65
38452;BME280;24231;52.514;13.438;2023-04-15T11:18:24;100320.54;;;10.28;85.49
38452;BME280;24231;52.514;13.438;2023-04-15T11:20:53;100328.41;;;9.79;87.56
38452;BME280;24231;52.514;13.438;2023-04-15T11:23:27;100326.99;;;10.07;85.79
38452;BME280;24231;52.514;13.438;2023-04-15T11:25:55;100330.72;;;10.04;85.78
38452;BME280;24231;52.514;13.438;2023-04-15T11:28:25;100334.55;;;10.29;84.70
38452;BME280;24231;52.514;13.438;2023-04-15T11:30:53;100333.52;;;11.29;79.81
38452;BME280;24231;52.514;13.438;2023-04-15T11:33:21;100342.81;;;10.67;80.44
38452;BME280;24231;52.514;13.438;2023-04-15T11:35:49;100339.26;;;10.24;84.23
38452;BME280;24231;52.514;13.438;2023-04-15T11:38:17;100342.83;;;11.54;78.65
38452;BME280;24231;52.514;13.438;2023-04-15T11:40:44;100348.56;;;10.78;82.30
38452;BME280;24231;52.514;13.438;2023-04-15T11:43:13;100346.92;;;10.15;84.65
38452;BME280;24231;52.514;13.438;2023-04-15T11:45:50;100357.45;;;9.63;87.16
38452;BME280;24231;52.514;13.438;2023-04-15T11:48:19;100350.79;;;11.17;80.91
38452;BME280;24231;52.514;13.438;2023-04-15T11:50:52;100355.99;;;10.50;81.99
38452;BME280;24231;52.514;13.438;2023-04-15T11:53:19;100358.50;;;10.78;81.64
38452;BME280;24231;52.514;13.438;2023-04-15T11:55:47;100361.97;;;10.79;81.92
38452;BME280;24231;52.514;13.438;2023-04-15T11:58:17;100364.63;;;11.09;79.79
38452;BME280;24231;52.514;13.438;2023-04-15T12:00:49;100372.36;;;9.53;89.62
38452;BME280;24231;52.514;13.438;2023-04-15T12:03:21;100364.66;;;10.93;84.32
38452;BME280;24231;52.514;13.438;2023-04-15T12:06:21;100375.19;;;10.12;84.79
38452;BME280;24231;52.514;13.438;2023-04-15T12:08:58;100378.97;;;9.69;88.34
38452;BME280;24231;52.514;13.438;2023-04-15T12:11:31;100377.22;;;9.16;92.81
38452;BME280;24231;52.514;13.438;2023-04-15T12:14:03;100380.38;;;9.22;93.79
38452;BME280;24231;52.514;13.438;2023-04-15T12:16:31;100379.36;;;9.73;92.32
38452;BME280;24231;52.514;13.438;2023-04-15T12:19:04;100381.97;;;9.79;91.25
38452;BME280;24231;52.514;13.438;2023-04-15T12:21:35;100380.43;;;9.97;89.55
38452;BME280;24231;52.514;13.438;2023-04-15T12:24:04;100377.01;;;10.57;86.91
38452;BME280;24231;52.514;13.438;2023-04-15T12:26:34;100377.41;;;10.55;84.42
38452;BME280;24231;52.514;13.438;2023-04-15T12:29:04;100381.42;;;11.50;83.01
38452;BME280;24231;52.514;13.438;2023-04-15T12:31:31;100382.19;;;11.41;81.63
38452;BME280;24231;52.514;13.438;2023-04-15T12:33:59;100395.16;;;9.92;89.55
38452;BME280;24231;52.514;13.438;2023-04-15T12:36:27;100390.63;;;10.59;86.53
38452;BME280;24231;52.514;13.438;2023-04-15T12:38:54;100397.57;;;10.15;88.31
38452;BME280;24231;52.514;13.438;2023-04-15T12:41:21;100399.02;;;10.24;89.40
38452;BME280;24231;52.514;13.438;2023-04-15T12:43:49;100394.31;;;10.62;85.64
38452;BME280;24231;52.514;13.438;2023-04-15T12:46:16;100394.76;;;10.54;85.81
38452;BME280;24231;52.514;13.438;2023-04-15T12:48:43;100396.51;;;11.32;83.24